Time;durP1;ratioP1;P1;durP2;ratioP2;P2;SDS_P1;SDS_P2;PMS_P1;PMS_P2;Temp;Humidity;BMP_temperature;BMP_pressure;BME280_temperature;BME280_humidity;BME280_pressure;Samples;Min_cycle;Max_cycle;Signal;HPM_P1;HPM_P2
2022/06/19 00:03:35;;;;;;;8.50;5.70;;;;;;;;;;8320674;28;20053;-85
2022/06/19 00:07:38;;;;;;;10.30;5.63;;;;;;;;;;8331826;28;20053;-84
2022/06/19 00:11:42;;;;;;;8.63;5.88;;;;;;;;;;8321947;28;20056;-84
2022/06/19 00:15:45;;;;;;;9.68;5.25;;;;;;;;;;8329551;28;20053;-84
2022/06/19 00:19:47;;;;;;;10.63;4.97;;;;;;;;;;8325870;28;20103;-86
2022/06/19 00:23:49;;;;;;;9.65;5.40;;;;;;;;;;8318630;28;20045;-88
2022/06/19 00:27:54;;;;;;;11.02;5.75;;;;;;;;;;8323879;28;20054;-92
2022/06/19 00:31:57;;;;;;;19.48;6.05;;;;;;;;;;8324121;28;20086;-85
2022/06/19 00:36:00;;;;;;;9.25;5.40;;;;;;;;;;8325897;28;20076;-85
2022/06/19 00:40:03;;;;;;;8.63;5.75;;;;;;;;;;8309472;28;20045;-87
2022/06/19 00:44:09;;;;;;;8.70;5.07;;;;;;;;;;8325551;28;20038;-83
2022/06/19 00:48:15;;;;;;;9.30;5.15;;;;;;;;;;8325621;28;20050;-88
2022/06/19 00:52:21;;;;;;;9.93;5.88;;;;;;;;;;8316658;28;20045;-83
2022/06/19 00:56:25;;;;;;;8.40;5.35;;;;;;;;;;8314512;28;20042;-84
2022/06/19 01:00:30;;;;;;;10.93;5.40;;;;;;;;;;8326117;28;20486;-84
2022/06/19 01:04:41;;;;;;;8.77;5.20;;;;;;;;;;8324389;28;20067;-85
2022/06/19 01:08:44;;;;;;;8.85;4.93;;;;;;;;;;8328864;28;20049;-85
2022/06/19 01:12:47;;;;;;;10.40;5.10;;;;;;;;;;8318101;28;20065;-85
2022/06/19 01:16:51;;;;;;;8.70;4.90;;;;;;;;;;8322667;28;20116;-93
2022/06/19 01:20:58;;;;;;;8.15;4.93;;;;;;;;;;8335892;28;20052;-84
2022/06/19 01:25:06;;;;;;;8.38;4.93;;;;;;;;;;8327831;28;20045;-85
2022/06/19 01:29:10;;;;;;;8.63;4.88;;;;;;;;;;8320499;28;20482;-87
2022/06/19 01:33:19;;;;;;;8.52;5.10;;;;;;;;;;8324845;28;20058;-84
2022/06/19 01:37:25;;;;;;;9.93;5.20;;;;;;;;;;8319798;28;20045;-83
2022/06/19 01:41:32;;;;;;;6.85;4.95;;;;;;;;;;8322661;28;20060;-82
2022/06/19 01:45:35;;;;;;;9.55;5.25;;;;;;;;;;8318821;28;20049;-82
2022/06/19 01:49:42;;;;;;;8.98;5.22;;;;;;;;;;8327760;28;20049;-83
2022/06/19 01:53:50;;;;;;;7.97;5.20;;;;;;;;;;8337093;28;20481;-83
2022/06/19 01:57:57;;;;;;;7.60;5.18;;;;;;;;;;8336409;28;20382;-83
2022/06/19 02:02:02;;;;;;;7.75;5.45;;;;;;;;;;8334332;28;20057;-83
2022/06/19 02:06:05;;;;;;;9.77;4.78;;;;;;;;;;8323307;28;20049;-83
2022/06/19 02:10:09;;;;;;;8.48;4.88;;;;;;;;;;8334565;28;20430;-83
2022/06/19 02:14:15;;;;;;;9.70;5.38;;;;;;;;;;8333048;28;20041;-83
2022/06/19 02:18:23;;;;;;;8.55;5.22;;;;;;;;;;8324952;28;20065;-83
2022/06/19 02:22:26;;;;;;;11.32;5.47;;;;;;;;;;8326388;28;20068;-83
2022/06/19 02:26:29;;;;;;;10.98;5.63;;;;;;;;;;8335464;28;20132;-84
2022/06/19 02:30:33;;;;;;;10.75;4.60;;;;;;;;;;8339135;28;20049;-95
2022/06/19 02:34:38;;;;;;;11.07;5.43;;;;;;;;;;8329545;28;20049;-83
2022/06/19 02:38:41;;;;;;;9.57;5.00;;;;;;;;;;8327992;28;20412;-86
2022/06/19 02:42:45;;;;;;;10.25;5.82;;;;;;;;;;8334322;28;20397;-94
2022/06/19 02:46:49;;;;;;;8.90;6.07;;;;;;;;;;8331464;28;20573;-85
2022/06/19 02:50:52;;;;;;;11.82;5.72;;;;;;;;;;8332703;28;20044;-85
2022/06/19 02:54:56;;;;;;;7.80;5.32;;;;;;;;;;8333596;28;20099;-86
2022/06/19 02:58:59;;;;;;;9.90;5.75;;;;;;;;;;8331251;28;20042;-87
2022/06/19 03:03:07;;;;;;;10.23;5.57;;;;;;;;;;8332464;28;20041;-84
2022/06/19 03:07:10;;;;;;;8.75;6.00;;;;;;;;;;8331817;28;20041;-95
2022/06/19 03:11:12;;;;;;;8.13;5.50;;;;;;;;;;8325499;28;20060;-83
2022/06/19 03:15:16;;;;;;;9.32;6.13;;;;;;;;;;8332827;28;20045;-85
2022/06/19 03:19:20;;;;;;;9.95;5.45;;;;;;;;;;8326574;28;20504;-85
2022/06/19 03:23:22;;;;;;;8.52;5.43;;;;;;;;;;8326424;28;20049;-85
2022/06/19 03:27:25;;;;;;;7.22;5.60;;;;;;;;;;8332736;28;20131;-84
2022/06/19 03:31:29;;;;;;;9.50;6.10;;;;;;;;;;8327956;28;20037;-88
2022/06/19 03:35:34;;;;;;;9.40;5.20;;;;;;;;;;8319841;28;20061;-92
2022/06/19 03:39:36;;;;;;;8.88;5.70;;;;;;;;;;8327624;28;20050;-88
2022/06/19 03:43:39;;;;;;;7.53;5.40;;;;;;;;;;8316156;28;20045;-86
2022/06/19 03:47:41;;;;;;;8.20;4.90;;;;;;;;;;8329009;28;20050;-89
2022/06/19 03:51:46;;;;;;;7.97;5.32;;;;;;;;;;8322759;28;20045;-85
2022/06/19 03:55:49;;;;;;;10.02;5.82;;;;;;;;;;8330360;28;20049;-85
2022/06/19 03:59:52;;;;;;;7.65;5.30;;;;;;;;;;8325908;28;20060;-86
2022/06/19 04:03:56;;;;;;;9.50;5.55;;;;;;;;;;8331626;28;20064;-85
2022/06/19 04:08:00;;;;;;;6.93;4.57;;;;;;;;;;8329343;28;20045;-85
2022/06/19 04:12:03;;;;;;;6.53;4.32;;;;;;;;;;8326343;28;20124;-85
2022/06/19 04:16:07;;;;;;;8.32;4.35;;;;;;;;;;8323717;28;20404;-85
2022/06/19 04:20:12;;;;;;;6.60;4.13;;;;;;;;;;8327073;28;20095;-86
2022/06/19 04:24:18;;;;;;;9.32;4.32;;;;;;;;;;8321621;28;20042;-87
2022/06/19 04:28:24;;;;;;;6.30;4.05;;;;;;;;;;8328583;28;20123;-88
2022/06/19 04:32:26;;;;;;;9.38;3.58;;;;;;;;;;8324569;28;20541;-84
2022/06/19 04:36:30;;;;;;;7.90;4.28;;;;;;;;;;8325275;28;20053;-84
2022/06/19 04:40:36;;;;;;;8.18;3.88;;;;;;;;;;8327206;28;20513;-86
2022/06/19 04:44:38;;;;;;;10.20;3.53;;;;;;;;;;8320887;28;20060;-86
2022/06/19 04:48:41;;;;;;;7.55;3.67;;;;;;;;;;8321713;28;20114;-87
2022/06/19 04:52:43;;;;;;;7.28;3.67;;;;;;;;;;8325134;28;20037;-91
2022/06/19 04:56:47;;;;;;;5.85;3.30;;;;;;;;;;8328959;28;20931;-85
2022/06/19 05:00:50;;;;;;;6.68;3.38;;;;;;;;;;8323312;28;20049;-86
2022/06/19 05:04:53;;;;;;;6.18;3.53;;;;;;;;;;8329774;28;20496;-90
2022/06/19 05:08:57;;;;;;;5.38;3.50;;;;;;;;;;8300189;28;20092;-90
2022/06/19 05:13:06;;;;;;;4.30;3.17;;;;;;;;;;8330909;28;20132;-92
2022/06/19 05:17:11;;;;;;;6.10;3.28;;;;;;;;;;8327432;28;20059;-93
2022/06/19 05:21:16;;;;;;;9.20;3.55;;;;;;;;;;8313538;28;20042;-93
2022/06/19 05:25:23;;;;;;;5.78;3.83;;;;;;;;;;8327012;28;20520;-92
2022/06/19 05:29:30;;;;;;;6.03;3.55;;;;;;;;;;8316326;28;20535;-88
2022/06/19 05:33:36;;;;;;;6.45;3.45;;;;;;;;;;8319402;28;20081;-82
2022/06/19 05:37:43;;;;;;;6.55;3.40;;;;;;;;;;8330036;28;20133;-88
2022/06/19 05:41:52;;;;;;;5.28;3.05;;;;;;;;;;8330176;28;20049;-91
2022/06/19 05:46:04;;;;;;;8.20;3.03;;;;;;;;;;8329193;28;20400;-92
2022/06/19 05:50:17;;;;;;;7.05;3.08;;;;;;;;;;8339657;28;20064;-87
2022/06/19 05:54:21;;;;;;;4.78;3.10;;;;;;;;;;8329283;28;20132;-86
2022/06/19 05:58:39;;;;;;;5.82;3.13;;;;;;;;;;8327734;28;20496;-85
2022/06/19 06:02:56;;;;;;;7.07;3.10;;;;;;;;;;8328727;28;20527;-89
2022/06/19 06:07:11;;;;;;;4.47;3.10;;;;;;;;;;8329134;28;20308;-84
2022/06/19 06:11:31;;;;;;;6.03;3.28;;;;;;;;;;8315330;28;20046;-85
2022/06/19 06:15:42;;;;;;;4.00;2.67;;;;;;;;;;8325661;28;20492;-89
2022/06/19 06:19:54;;;;;;;5.28;2.85;;;;;;;;;;8329071;28;20056;-90
2022/06/19 06:24:01;;;;;;;7.40;2.78;;;;;;;;;;8329848;28;20470;-89
2022/06/19 06:28:07;;;;;;;6.95;2.92;;;;;;;;;;8340311;28;20060;-91
2022/06/19 06:32:12;;;;;;;5.20;2.50;;;;;;;;;;8343456;28;20092;-94
2022/06/19 06:36:16;;;;;;;7.25;2.63;;;;;;;;;;8326523;28;20059;-85
2022/06/19 06:40:20;;;;;;;5.63;2.90;;;;;;;;;;8325133;28;20417;-86
2022/06/19 06:44:23;;;;;;;4.20;3.00;;;;;;;;;;8314614;28;20049;-86
2022/06/19 06:48:26;;;;;;;4.93;2.88;;;;;;;;;;8315838;28;20145;-87
2022/06/19 06:52:30;;;;;;;5.03;2.53;;;;;;;;;;8329567;28;20053;-90
2022/06/19 06:56:35;;;;;;;6.00;2.63;;;;;;;;;;8327524;28;20065;-88
2022/06/19 07:00:39;;;;;;;4.30;2.47;;;;;;;;;;8335002;28;20278;-88
2022/06/19 07:04:42;;;;;;;4.22;2.60;;;;;;;;;;8327459;28;20172;-87
2022/06/19 07:08:47;;;;;;;5.03;2.60;;;;;;;;;;8331380;28;20064;-87
2022/06/19 07:12:57;;;;;;;6.53;2.53;;;;;;;;;;8325433;28;20095;-85
2022/06/19 07:22:04;;;;;;;3.25;2.25;;;;;;;;;;8335590;28;20041;-94
2022/06/19 07:26:19;;;;;;;3.88;2.22;;;;;;;;;;8332854;28;20061;-94
2022/06/19 07:30:26;;;;;;;5.57;2.67;;;;;;;;;;8333174;28;20063;-89
2022/06/19 07:34:30;;;;;;;4.40;2.60;;;;;;;;;;8323901;28;20080;-90
2022/06/19 07:38:34;;;;;;;4.22;2.75;;;;;;;;;;8327490;28;20309;-91
2022/06/19 07:42:43;;;;;;;4.00;2.40;;;;;;;;;;8322343;28;20124;-88
2022/06/19 07:51:08;;;;;;;8.48;2.92;;;;;;;;;;8316781;28;20489;-88
2022/06/19 07:55:16;;;;;;;5.93;2.80;;;;;;;;;;8321017;28;20042;-89
2022/06/19 07:59:28;;;;;;;4.38;2.83;;;;;;;;;;8334353;28;20049;-91
2022/06/19 08:03:33;;;;;;;8.27;4.18;;;;;;;;;;8332694;28;20420;-84
2022/06/19 08:07:37;;;;;;;10.30;7.28;;;;;;;;;;8330684;28;20045;-88
2022/06/19 08:11:43;;;;;;;8.95;3.60;;;;;;;;;;8343162;28;20042;-88
2022/06/19 08:15:48;;;;;;;10.52;3.63;;;;;;;;;;8311015;28;20492;-85
2022/06/19 08:19:51;;;;;;;4.95;2.72;;;;;;;;;;8327110;28;20087;-85
2022/06/19 08:23:55;;;;;;;5.50;2.85;;;;;;;;;;8325893;28;20099;-87
2022/06/19 08:27:58;;;;;;;6.80;3.22;;;;;;;;;;8327273;28;20068;-89
2022/06/19 08:32:03;;;;;;;7.07;2.80;;;;;;;;;;8327432;28;20052;-89
2022/06/19 08:36:10;;;;;;;6.47;3.30;;;;;;;;;;8322805;28;20069;-85
2022/06/19 08:40:35;;;;;;;6.80;3.40;;;;;;;;;;8323316;28;20045;-87
2022/06/19 08:44:59;;;;;;;5.07;3.05;;;;;;;;;;8323613;28;20485;-90
2022/06/19 08:49:23;;;;;;;5.32;2.97;;;;;;;;;;8320906;28;20052;-87
2022/06/19 08:53:44;;;;;;;5.47;3.03;;;;;;;;;;8321169;28;20045;-88
2022/06/19 08:58:02;;;;;;;5.90;2.92;;;;;;;;;;8330964;28;20114;-86
2022/06/19 09:02:14;;;;;;;5.95;3.33;;;;;;;;;;8319792;28;20041;-87
2022/06/19 09:06:29;;;;;;;8.15;4.03;;;;;;;;;;8315002;28;20096;-91
2022/06/19 09:10:41;;;;;;;3.45;2.80;;;;;;;;;;8324851;28;20095;-89
2022/06/19 09:14:59;;;;;;;9.23;4.40;;;;;;;;;;8325511;28;20040;-91
2022/06/19 09:19:11;;;;;;;6.32;2.65;;;;;;;;;;8321321;28;20099;-89
2022/06/19 09:23:34;;;;;;;5.47;2.67;;;;;;;;;;8328783;28;20563;-87
2022/06/19 09:27:52;;;;;;;6.05;2.20;;;;;;;;;;8322733;28;20048;-90
2022/06/19 09:32:14;;;;;;;4.75;2.42;;;;;;;;;;8315425;28;20065;-89
2022/06/19 09:36:36;;;;;;;5.13;3.03;;;;;;;;;;8308277;28;20066;-88
2022/06/19 09:40:56;;;;;;;3.47;2.45;;;;;;;;;;8324898;28;20676;-89
2022/06/19 09:45:17;;;;;;;6.53;2.63;;;;;;;;;;8319913;28;20049;-89
2022/06/19 09:49:29;;;;;;;3.92;2.45;;;;;;;;;;8320189;28;20049;-86
2022/06/19 09:53:37;;;;;;;3.55;2.38;;;;;;;;;;8310671;28;20144;-91
2022/06/19 09:57:48;;;;;;;3.13;2.60;;;;;;;;;;8330815;28;20493;-89
2022/06/19 10:01:57;;;;;;;3.35;1.95;;;;;;;;;;8316287;28;20045;-89
2022/06/19 10:06:09;;;;;;;5.75;2.17;;;;;;;;;;8328052;28;20042;-89
2022/06/19 10:10:25;;;;;;;4.38;2.35;;;;;;;;;;8325402;28;20041;-91
2022/06/19 10:14:46;;;;;;;6.47;2.78;;;;;;;;;;8325919;28;20045;-89
2022/06/19 10:18:56;;;;;;;3.97;2.10;;;;;;;;;;8315683;28;20093;-88
2022/06/19 10:23:13;;;;;;;4.67;2.10;;;;;;;;;;8324223;28;20723;-88
2022/06/19 10:27:34;;;;;;;5.85;2.50;;;;;;;;;;8315075;28;20054;-85
2022/06/19 10:32:06;;;;;;;6.13;2.30;;;;;;;;;;8327269;28;20140;-85
2022/06/19 10:36:24;;;;;;;3.85;2.50;;;;;;;;;;8323923;28;20152;-90
2022/06/19 10:40:49;;;;;;;4.60;2.40;;;;;;;;;;8318747;28;20080;-92
2022/06/19 10:45:24;;;;;;;7.43;2.92;;;;;;;;;;8320478;28;20056;-84
2022/06/19 10:49:37;;;;;;;4.85;2.45;;;;;;;;;;8308389;28;20307;-90
2022/06/19 10:54:01;;;;;;;3.45;2.42;;;;;;;;;;8325315;28;20057;-87
2022/06/19 10:58:19;;;;;;;7.10;2.38;;;;;;;;;;8315296;28;20056;-85
2022/06/19 11:07:14;;;;;;;5.93;2.10;;;;;;;;;;8241237;28;20046;-85
2022/06/19 11:11:18;;;;;;;7.35;2.72;;;;;;;;;;8332273;28;20468;-87
2022/06/19 11:15:29;;;;;;;3.28;2.20;;;;;;;;;;8337656;28;20576;-83
2022/06/19 11:19:35;;;;;;;6.10;2.25;;;;;;;;;;8313792;28;20053;-85
2022/06/19 11:23:51;;;;;;;9.95;2.13;;;;;;;;;;8324472;28;20045;-87
2022/06/19 11:28:02;;;;;;;4.75;2.42;;;;;;;;;;8319331;28;20043;-84
2022/06/19 11:32:10;;;;;;;8.25;2.25;;;;;;;;;;8324637;28;20045;-85
2022/06/19 11:36:36;;;;;;;4.47;2.42;;;;;;;;;;8322704;28;20081;-89
2022/06/19 11:40:46;;;;;;;5.97;2.58;;;;;;;;;;8323138;28;20053;-89
2022/06/19 11:44:52;;;;;;;4.55;2.10;;;;;;;;;;8324757;28;20041;-88
2022/06/19 11:48:57;;;;;;;5.47;2.35;;;;;;;;;;8328007;28;20053;-89
2022/06/19 11:53:15;;;;;;;6.47;2.10;;;;;;;;;;8325189;28;20103;-83
2022/06/19 11:57:28;;;;;;;5.18;2.47;;;;;;;;;;8318034;28;20175;-83
2022/06/19 12:01:39;;;;;;;4.32;2.03;;;;;;;;;;8312571;28;20062;-88
2022/06/19 12:06:02;;;;;;;9.02;2.40;;;;;;;;;;8319764;28;20053;-86
2022/06/19 12:10:27;;;;;;;7.75;2.60;;;;;;;;;;8325937;28;20053;-90
2022/06/19 12:14:39;;;;;;;7.30;2.55;;;;;;;;;;8320746;28;20567;-88
2022/06/19 12:18:48;;;;;;;7.00;2.55;;;;;;;;;;8323772;28;20144;-88
2022/06/19 12:23:00;;;;;;;4.78;2.10;;;;;;;;;;8318053;28;20069;-90
2022/06/19 12:27:12;;;;;;;9.65;2.47;;;;;;;;;;8323443;28;20419;-86
2022/06/19 12:31:25;;;;;;;8.43;2.50;;;;;;;;;;8316582;28;20103;-87
2022/06/19 12:35:34;;;;;;;4.80;2.30;;;;;;;;;;8313387;28;20064;-86
2022/06/19 12:39:48;;;;;;;7.30;2.35;;;;;;;;;;8316318;28;20080;-88
2022/06/19 12:44:19;;;;;;;10.07;2.45;;;;;;;;;;8315948;28;20485;-85
2022/06/19 12:48:46;;;;;;;9.65;2.45;;;;;;;;;;8315558;28;20128;-89
2022/06/19 12:53:02;;;;;;;7.00;2.47;;;;;;;;;;8317617;28;20045;-90
2022/06/19 12:57:24;;;;;;;8.88;2.45;;;;;;;;;;8316904;28;20485;-88
2022/06/19 13:01:41;;;;;;;5.78;2.50;;;;;;;;;;8316655;28;20056;-86
2022/06/19 13:05:57;;;;;;;6.13;2.80;;;;;;;;;;8316026;28;20056;-84
2022/06/19 13:10:33;;;;;;;4.45;2.60;;;;;;;;;;8320121;28;20053;-85
2022/06/19 13:15:15;;;;;;;6.65;2.33;;;;;;;;;;8316339;28;20102;-84
2022/06/19 13:19:29;;;;;;;7.43;2.50;;;;;;;;;;8317046;28;20091;-88
2022/06/19 13:23:48;;;;;;;7.43;2.60;;;;;;;;;;8316174;28;20045;-84
2022/06/19 13:28:17;;;;;;;6.10;2.70;;;;;;;;;;8319196;28;20080;-88
2022/06/19 13:32:29;;;;;;;6.65;2.53;;;;;;;;;;8319016;28;21428;-85
2022/06/19 13:36:46;;;;;;;7.85;2.75;;;;;;;;;;8315110;28;20053;-87
2022/06/19 13:41:02;;;;;;;6.60;2.92;;;;;;;;;;8311825;28;20045;-89
2022/06/19 13:45:27;;;;;;;13.77;2.53;;;;;;;;;;8316963;28;20120;-89
2022/06/19 13:49:54;;;;;;;8.30;2.72;;;;;;;;;;8323948;28;20540;-86
2022/06/19 13:54:07;;;;;;;13.63;2.70;;;;;;;;;;8325529;28;20041;-86
2022/06/19 13:58:29;;;;;;;6.22;2.38;;;;;;;;;;8323397;28;20397;-88
2022/06/19 14:03:12;;;;;;;7.28;2.72;;;;;;;;;;8321669;28;20079;-84
2022/06/19 14:07:35;;;;;;;7.10;2.70;;;;;;;;;;8316088;28;20053;-86
2022/06/19 14:12:07;;;;;;;8.07;2.65;;;;;;;;;;8327162;28;20076;-82
2022/06/19 14:16:31;;;;;;;9.90;2.80;;;;;;;;;;8320994;28;20054;-87
2022/06/19 14:20:54;;;;;;;12.65;2.55;;;;;;;;;;8319670;28;20459;-89
2022/06/19 14:25:15;;;;;;;9.18;2.58;;;;;;;;;;8323489;28;20046;-86
2022/06/19 14:29:42;;;;;;;12.30;3.20;;;;;;;;;;8324911;28;20055;-86
2022/06/19 14:33:58;;;;;;;10.20;2.58;;;;;;;;;;8311186;28;20104;-87
2022/06/19 14:38:43;;;;;;;6.60;2.25;;;;;;;;;;8318940;28;20144;-86
2022/06/19 14:43:08;;;;;;;14.38;2.95;;;;;;;;;;8321733;28;20045;-85
2022/06/19 14:47:53;;;;;;;8.80;2.85;;;;;;;;;;8313602;28;20057;-87
2022/06/19 14:53:00;;;;;;;13.25;2.60;;;;;;;;;;8320456;28;20112;-86
2022/06/19 14:57:17;;;;;;;11.70;2.38;;;;;;;;;;8321519;28;20068;-87
2022/06/19 15:01:34;;;;;;;10.32;2.67;;;;;;;;;;8327289;28;20050;-89
2022/06/19 15:05:55;;;;;;;10.88;2.28;;;;;;;;;;8322657;28;20041;-89
2022/06/19 15:10:30;;;;;;;8.85;2.53;;;;;;;;;;8317854;28;20060;-90
2022/06/19 15:14:39;;;;;;;10.50;2.75;;;;;;;;;;8321287;28;20048;-86
2022/06/19 15:18:52;;;;;;;10.00;3.05;;;;;;;;;;8318947;28;20053;-85
2022/06/19 15:23:47;;;;;;;9.35;2.53;;;;;;;;;;8314746;28;20129;-85
2022/06/19 15:28:01;;;;;;;9.13;2.80;;;;;;;;;;8320956;28;20080;-86
2022/06/19 15:33:02;;;;;;;11.52;2.45;;;;;;;;;;8317003;28;20041;-87
2022/06/19 15:37:28;;;;;;;10.20;2.00;;;;;;;;;;8254948;28;20058;-85
2022/06/19 15:42:13;;;;;;;7.03;2.33;;;;;;;;;;8254413;28;20078;-84
2022/06/19 15:46:21;;;;;;;9.07;2.65;;;;;;;;;;8255703;28;20046;-89
2022/06/19 15:50:29;;;;;;;9.13;2.30;;;;;;;;;;8255126;28;20465;-91
2022/06/19 15:54:35;;;;;;;9.63;2.30;;;;;;;;;;8253146;28;20050;-85
2022/06/19 15:58:43;;;;;;;6.30;2.58;;;;;;;;;;8254643;28;20038;-86
2022/06/19 16:02:49;;;;;;;9.07;2.30;;;;;;;;;;8253085;28;20410;-87
2022/06/19 16:07:01;;;;;;;6.25;2.35;;;;;;;;;;8245721;28;20540;-89
2022/06/19 16:11:31;;;;;;;8.88;1.98;;;;;;;;;;8234039;28;20043;-85
2022/06/19 16:15:58;;;;;;;11.02;2.65;;;;;;;;;;8242708;28;20050;-92
2022/06/19 16:20:29;;;;;;;7.82;2.55;;;;;;;;;;8253942;28;20118;-85
2022/06/19 16:25:15;;;;;;;7.85;2.40;;;;;;;;;;8244084;28;20138;-90
2022/06/19 16:29:55;;;;;;;8.65;2.85;;;;;;;;;;8252436;28;20055;-92
2022/06/19 16:34:26;;;;;;;8.38;2.13;;;;;;;;;;8268360;28;20568;-90
2022/06/19 16:44:10;;;;;;;9.55;2.60;;;;;;;;;;8318386;28;20045;-88
2022/06/19 16:53:49;;;;;;;8.20;2.35;;;;;;;;;;8318858;28;20115;-85
2022/06/19 16:58:30;;;;;;;8.52;2.40;;;;;;;;;;8302324;28;20053;-90
2022/06/19 17:02:44;;;;;;;11.02;2.38;;;;;;;;;;8313111;28;20760;-87
2022/06/19 17:07:00;;;;;;;10.18;2.40;;;;;;;;;;8319108;28;20052;-88
2022/06/19 17:11:19;;;;;;;10.38;2.47;;;;;;;;;;8312885;28;20052;-87
2022/06/19 17:15:36;;;;;;;13.48;2.72;;;;;;;;;;8320187;28;20057;-87
2022/06/19 17:19:55;;;;;;;5.95;2.85;;;;;;;;;;8314737;28;20045;-86
2022/06/19 17:24:22;;;;;;;7.97;2.60;;;;;;;;;;8317147;28;20580;-87
2022/06/19 17:28:26;;;;;;;10.55;2.88;;;;;;;;;;8320067;28;20057;-88
2022/06/19 17:32:46;;;;;;;6.47;2.60;;;;;;;;;;8318632;28;20060;-89
2022/06/19 17:36:57;;;;;;;7.00;2.83;;;;;;;;;;8310169;28;20161;-93
2022/06/19 17:41:11;;;;;;;9.32;2.50;;;;;;;;;;8309681;28;20140;-90
2022/06/19 17:45:24;;;;;;;8.30;2.78;;;;;;;;;;8318617;28;20096;-85
2022/06/19 17:49:38;;;;;;;8.30;2.83;;;;;;;;;;8322064;28;20045;-86
2022/06/19 17:53:44;;;;;;;10.73;2.90;;;;;;;;;;8321734;28;20049;-89
2022/06/19 17:58:00;;;;;;;12.07;2.65;;;;;;;;;;8319547;28;20095;-86
2022/06/19 18:02:17;;;;;;;11.60;2.85;;;;;;;;;;8317841;28;20049;-85
2022/06/19 18:06:32;;;;;;;6.93;2.60;;;;;;;;;;8317135;28;20042;-85
2022/06/19 18:10:45;;;;;;;16.67;2.95;;;;;;;;;;8320191;28;20473;-85
2022/06/19 18:14:50;;;;;;;4.85;2.70;;;;;;;;;;8318431;28;20118;-86
2022/06/19 18:18:57;;;;;;;9.38;2.75;;;;;;;;;;8319626;28;20045;-87
2022/06/19 18:23:03;;;;;;;7.68;2.72;;;;;;;;;;8317924;28;20053;-89
2022/06/19 18:27:18;;;;;;;8.70;3.00;;;;;;;;;;8320691;28;20041;-89
2022/06/19 18:31:22;;;;;;;6.25;2.80;;;;;;;;;;8319139;28;20045;-91
2022/06/19 18:35:26;;;;;;;13.07;3.38;;;;;;;;;;8322154;28;20081;-88
2022/06/19 18:39:32;;;;;;;10.57;3.40;;;;;;;;;;8323854;28;20053;-87
2022/06/19 18:43:35;;;;;;;6.32;2.85;;;;;;;;;;8324719;28;20417;-86
2022/06/19 18:47:42;;;;;;;5.38;2.88;;;;;;;;;;8325726;28;20060;-85
2022/06/19 18:51:52;;;;;;;5.95;2.75;;;;;;;;;;8318566;28;20061;-87
2022/06/19 18:56:03;;;;;;;12.07;3.45;;;;;;;;;;8326766;28;20131;-91
2022/06/19 19:00:20;;;;;;;9.73;3.37;;;;;;;;;;8328427;28;20049;-92
2022/06/19 19:04:36;;;;;;;8.68;3.03;;;;;;;;;;8327437;28;20064;-92
2022/06/19 19:08:44;;;;;;;7.03;3.35;;;;;;;;;;8328347;28;20140;-91
2022/06/19 19:13:41;;;;;;;10.35;3.45;;;;;;;;;;8327347;28;20049;-91
2022/06/19 19:17:53;;;;;;;9.65;3.60;;;;;;;;;;8328009;28;20045;-93
2022/06/19 19:22:18;;;;;;;6.28;3.28;;;;;;;;;;8321192;28;20069;-92
2022/06/19 19:26:44;;;;;;;11.60;3.80;;;;;;;;;;8307118;28;20049;-84
2022/06/19 19:31:12;;;;;;;7.32;3.70;;;;;;;;;;8314106;28;20088;-86
2022/06/19 19:35:25;;;;;;;7.25;3.42;;;;;;;;;;8316428;28;20171;-84
2022/06/19 19:39:37;;;;;;;8.50;3.60;;;;;;;;;;8310647;28;20042;-84
2022/06/19 19:43:52;;;;;;;6.68;3.72;;;;;;;;;;8299481;28;20044;-85
2022/06/19 19:48:30;;;;;;;8.07;4.05;;;;;;;;;;8308489;28;20133;-84
2022/06/19 19:52:36;;;;;;;10.10;3.70;;;;;;;;;;8300950;28;20096;-84
2022/06/19 19:56:43;;;;;;;9.00;3.90;;;;;;;;;;8303252;28;20042;-84
2022/06/19 20:00:49;;;;;;;7.65;3.40;;;;;;;;;;8308550;28;20038;-84
2022/06/19 20:05:01;;;;;;;14.52;4.03;;;;;;;;;;8305517;28;20129;-86
2022/06/19 20:14:10;;;;;;;11.52;3.60;;;;;;;;;;8326789;28;20083;-90
2022/06/19 20:18:56;;;;;;;9.25;3.90;;;;;;;;;;8301602;28;20132;-85
2022/06/19 20:23:09;;;;;;;9.43;3.75;;;;;;;;;;8311789;28;20068;-85
2022/06/19 20:27:19;;;;;;;10.48;3.92;;;;;;;;;;8312502;28;20046;-93
2022/06/19 20:31:22;;;;;;;9.60;3.83;;;;;;;;;;8321125;28;20060;-84
2022/06/19 20:35:28;;;;;;;7.93;3.63;;;;;;;;;;8331955;28;20049;-82
2022/06/19 20:39:35;;;;;;;10.05;3.72;;;;;;;;;;8330336;28;20056;-83
2022/06/19 20:43:38;;;;;;;7.68;3.78;;;;;;;;;;8331667;28;20053;-83
2022/06/19 20:47:44;;;;;;;7.97;3.90;;;;;;;;;;8331519;28;20048;-83
2022/06/19 20:51:47;;;;;;;12.15;4.53;;;;;;;;;;8331508;28;20110;-83
2022/06/19 20:55:53;;;;;;;7.05;3.47;;;;;;;;;;8331053;28;20053;-87
2022/06/19 20:59:57;;;;;;;7.53;4.15;;;;;;;;;;8331070;28;20122;-91
2022/06/19 21:04:00;;;;;;;8.23;3.63;;;;;;;;;;8330170;28;20504;-92
2022/06/19 21:08:05;;;;;;;7.13;3.55;;;;;;;;;;8329525;28;20611;-82
2022/06/19 21:12:11;;;;;;;9.02;3.67;;;;;;;;;;8329480;28;20041;-85
2022/06/19 21:16:17;;;;;;;8.32;3.97;;;;;;;;;;8329036;28;20049;-86
2022/06/19 21:20:20;;;;;;;7.28;3.47;;;;;;;;;;8329586;28;20045;-93
2022/06/19 21:24:27;;;;;;;6.25;3.17;;;;;;;;;;8330647;28;20069;-84
2022/06/19 21:28:35;;;;;;;6.78;3.88;;;;;;;;;;8330210;28;20053;-82
2022/06/19 21:32:39;;;;;;;7.25;3.75;;;;;;;;;;8330581;28;20543;-83
2022/06/19 21:36:42;;;;;;;7.22;3.50;;;;;;;;;;8330294;28;20057;-82
2022/06/19 21:40:48;;;;;;;12.23;3.83;;;;;;;;;;8330400;28;20045;-82
2022/06/19 21:44:52;;;;;;;9.00;3.60;;;;;;;;;;8330307;28;20045;-82
2022/06/19 21:48:55;;;;;;;8.38;3.47;;;;;;;;;;8330569;28;20132;-82
2022/06/19 21:52:58;;;;;;;8.85;3.60;;;;;;;;;;8329910;28;20048;-82
2022/06/19 21:57:01;;;;;;;8.93;4.10;;;;;;;;;;8330741;28;20128;-82
2022/06/19 22:01:05;;;;;;;9.45;4.13;;;;;;;;;;8330372;28;20619;-82
2022/06/19 22:05:13;;;;;;;7.93;4.00;;;;;;;;;;8330037;28;20046;-84
2022/06/19 22:09:24;;;;;;;9.68;5.68;;;;;;;;;;8335294;28;20529;-83
2022/06/19 22:13:26;;;;;;;10.25;5.53;;;;;;;;;;8336522;28;20049;-82
2022/06/19 22:17:48;;;;;;;8.65;4.72;;;;;;;;;;8336686;28;20476;-82
2022/06/19 22:21:51;;;;;;;6.57;4.53;;;;;;;;;;8336607;28;20115;-82
2022/06/19 22:25:54;;;;;;;7.50;4.57;;;;;;;;;;8335896;28;20503;-82
2022/06/19 22:29:56;;;;;;;13.40;4.78;;;;;;;;;;8336165;28;20042;-82
2022/06/19 22:34:00;;;;;;;9.35;5.05;;;;;;;;;;8336180;28;20049;-82
2022/06/19 22:38:04;;;;;;;10.57;5.13;;;;;;;;;;8336363;28;20045;-84
2022/06/19 22:42:11;;;;;;;10.32;5.90;;;;;;;;;;8336051;28;20045;-83
2022/06/19 22:46:15;;;;;;;11.35;5.75;;;;;;;;;;8335912;28;20650;-82
2022/06/19 22:50:22;;;;;;;9.75;5.35;;;;;;;;;;8336011;28;20545;-82
2022/06/19 22:54:25;;;;;;;6.75;4.68;;;;;;;;;;8335354;28;20041;-82
2022/06/19 23:02:48;;;;;;;9.55;6.00;;;;;;;;;;8334926;28;20053;-83
2022/06/19 23:06:53;;;;;;;9.25;5.18;;;;;;;;;;8334854;28;20053;-87
2022/06/19 23:10:56;;;;;;;10.45;5.38;;;;;;;;;;8334674;28;20061;-94
2022/06/19 23:15:00;;;;;;;7.25;5.05;;;;;;;;;;8335301;28;20072;-83
2022/06/19 23:19:07;;;;;;;8.73;5.45;;;;;;;;;;8334144;28;20045;-91
2022/06/19 23:23:13;;;;;;;10.25;5.22;;;;;;;;;;8334475;28;20056;-83
2022/06/19 23:27:19;;;;;;;10.27;5.53;;;;;;;;;;8334393;28;20050;-95
2022/06/19 23:31:25;;;;;;;11.13;5.60;;;;;;;;;;8334133;28;20069;-94
2022/06/19 23:35:27;;;;;;;9.85;5.80;;;;;;;;;;8334066;28;20057;-92
2022/06/19 23:39:34;;;;;;;8.98;5.68;;;;;;;;;;8333971;28;20045;-93
2022/06/19 23:43:37;;;;;;;9.45;5.95;;;;;;;;;;8333207;28;20048;-94
2022/06/19 23:47:41;;;;;;;11.43;5.32;;;;;;;;;;8334229;28;20455;-83
2022/06/19 23:51:44;;;;;;;10.30;5.75;;;;;;;;;;8333874;28;20439;-83
2022/06/19 23:55:48;;;;;;;13.23;7.05;;;;;;;;;;8333879;28;20060;-83
2022/06/19 23:59:51;;;;;;;12.80;6.15;;;;;;;;;;8333476;28;20046;-83
